• Join FlightAware (Why Join?)
  • Login
  • US Flag 
03:45AM EDT


 

Airport Tracker/Info


-or-


 

Live Flight TrackerFlight Track Log ✈ CSJ406 ✈ 22-May-2013 ✈ KBUF - KCAK

Flight Track Log - Related Links

Times and Time Zones

All times are in EDT time to prevent confusion due to time zone crossing. See the CSJ406 flight status page for this flight to view local times or setup timezone preferences in your user account.

Time Position Orientation Groundspeed Altitude Reporting Facility
EDT Latitude Longitude Course Direction KTS MPH feet Rate Location/Type
07:34AM 42.9167 -78.7000 137° Southeast 103 119 1,800  Level Buffalo TRACON
07:35AM 42.9000 -78.7333 236° Southwest 88 101 3,000 900 Climbing Buffalo TRACON
07:36AM 42.8833 -78.7667 236° Southwest 120 138 3,600 540 Climbing Buffalo TRACON
07:37AM 42.8667 -78.8000 236° Southwest 132 152 4,100 480 Climbing Buffalo TRACON
07:38AM 42.8333 -78.8333 216° Southwest 130 150 4,600 480 Climbing Buffalo TRACON
07:39AM 42.8167 -78.8667 236° Southwest 132 152 5,100 480 Climbing Buffalo TRACON
07:40AM 42.7833 -78.9000 216° Southwest 133 153 5,600 480 Climbing Buffalo TRACON
07:41AM 42.7667 -78.9333 236° Southwest 133 153 6,100 480 Climbing Buffalo TRACON
07:42AM 42.7333 -78.9833 228° Southwest 131 151 6,600 600 Climbing Buffalo TRACON
07:43AM 42.7167 -79.0167 236° Southwest 128 147 7,300 600 Climbing Buffalo TRACON
07:44AM 42.6833 -79.0500 216° Southwest 120 138 7,900 360 Climbing Buffalo TRACON
07:45AM 42.6667 -79.0833 236° Southwest 130 150 8,100 60 Climbing Buffalo TRACON
07:46AM 42.6333 -79.1167 216° Southwest 148 170 8,100  Level Buffalo TRACON
07:48AM 42.5880 -79.1849 228° Southwest  Level FlightAware Approximate
07:55AM 42.4136 -79.4437 225° Southwest  Level FlightAware Approximate
07:56AM 42.3877 -79.4792 225° Southwest  Level FlightAware Approximate
07:57AM 42.3592 -79.5182 225° Southwest  Level FlightAware Approximate
07:58AM 42.3307 -79.5572 225° Southwest  Level FlightAware Approximate
07:59AM 42.3022 -79.5961 225° Southwest  Level FlightAware Approximate
08:00AM 42.2737 -79.6350 225° Southwest  Level FlightAware Approximate
08:01AM 42.2451 -79.6739 225° Southwest  Level FlightAware Approximate
08:02AM 42.2165 -79.7127 225° Southwest  Level FlightAware Approximate
08:03AM 42.1880 -79.7515 225° Southwest  Level FlightAware Approximate
08:04AM 42.1594 -79.7902 225° Southwest  Level FlightAware Approximate
08:05AM 42.1308 -79.8289 225° Southwest  Level FlightAware Approximate
08:06AM 42.1022 -79.8676 225° Southwest  Level FlightAware Approximate
08:07AM 42.0735 -79.9063 225° Southwest  Level FlightAware Approximate
08:08AM 42.0449 -79.9449 225° Southwest  Level FlightAware Approximate
08:09AM 42.0163 -79.9835 225° Southwest  Level FlightAware Approximate
08:10AM 41.9876 -80.0220 225° Southwest  Level FlightAware Approximate
08:11AM 41.9589 -80.0605 225° Southwest  Level FlightAware Approximate
08:12AM 41.9302 -80.0990 225° Southwest  Level FlightAware Approximate
08:13AM 41.9015 -80.1374 225° Southwest  Level FlightAware Approximate
08:14AM 41.8728 -80.1758 225° Southwest  Level FlightAware Approximate
08:15AM 41.8441 -80.2142 225° Southwest  Level FlightAware Approximate
08:16AM 41.8153 -80.2525 225° Southwest  Level FlightAware Approximate
08:17AM 41.7866 -80.2908 225° Southwest  Level FlightAware Approximate
08:18AM 41.7578 -80.3291 225° Southwest  Level FlightAware Approximate
08:19AM 41.7290 -80.3673 225° Southwest  Level FlightAware Approximate
08:20AM 41.7002 -80.4055 225° Southwest  Level FlightAware Approximate
08:21AM 41.6714 -80.4437 225° Southwest  Level FlightAware Approximate
08:22AM 41.6428 -80.4821 225° Southwest  Level FlightAware Approximate
08:23AM 41.6142 -80.5205 225° Southwest  Level FlightAware Approximate
08:24AM 41.5856 -80.5589 225° Southwest  Level FlightAware Approximate
08:25AM 41.5570 -80.5972 225° Southwest  Level FlightAware Approximate
08:26AM 41.5284 -80.6355 225° Southwest  Level FlightAware Approximate
08:27AM 41.4997 -80.6738 225° Southwest  Level FlightAware Approximate
08:28AM 41.4711 -80.7121 225° Southwest  Level FlightAware Approximate
08:29AM 41.4424 -80.7503 225° Southwest  Level FlightAware Approximate
08:30AM 41.4137 -80.7884 225° Southwest  Level FlightAware Approximate
08:31AM 41.3850 -80.8266 225° Southwest  Level FlightAware Approximate
08:32AM 41.3563 -80.8647 225° Southwest  Level FlightAware Approximate
08:33AM 41.3276 -80.9028 225° Southwest  Level FlightAware Approximate
08:34AM 41.2988 -80.9408 225° Southwest  Level FlightAware Approximate
08:35AM 41.2701 -80.9788 225° Southwest  Level FlightAware Approximate
08:36AM 41.2381 -81.0119 217° Southwest  Level FlightAware Approximate
08:37AM 41.2057 -81.0443 217° Southwest  Level FlightAware Approximate
08:38AM 41.1792 -81.0846 231° Southwest  Level FlightAware Approximate
08:39AM 41.1540 -81.1267 231° Southwest  Level FlightAware Approximate
08:40AM 41.1245 -81.1632 229° Southwest  Level FlightAware Approximate
08:41AM 41.0965 -81.2000 180° South  Level FlightAware Approximate
08:42AM 41.0663 -81.2284 232° Southwest  Level FlightAware Approximate
08:43AM 41.0411 -81.2705 232° Southwest  Level FlightAware Approximate
08:44AM 41.0129 -81.3089 223° Southwest  Level FlightAware Approximate
08:45AM 40.9834 -81.3458 223° Southwest  Level FlightAware Approximate
08:46AM 40.9527 -81.3807 217° Southwest  Level FlightAware Approximate
08:47AM 40.9204 -81.4130 217° Southwest  Level FlightAware Approximate
08:48AM 40.9000 -81.4333 North  Level FlightAware Approximate
08:49AM 40.9151 -81.4436 North  Level Estimated
08:50AM 40.9151 -81.4436 North  Level Estimated
08:51AM 40.9151 -81.4436 North  Level Estimated
08:52AM 40.9151 -81.4436 North  Level Estimated
08:53AM 40.9151 -81.4436 North  Level Estimated
08:54AM 40.9151 -81.4436 North  Level Estimated
08:55AM 40.9151 -81.4436 North  Level Estimated
08:56AM 40.9151 -81.4436 North  Level Estimated
08:57AM 40.9151 -81.4436 North  Level Estimated